createdAt,value
2022-11-02T00:00:18.532Z,49.85
2022-11-02T00:00:50.981Z,49.82
2022-11-02T00:01:26.438Z,50.19
2022-11-02T00:02:01.494Z,50.06
2022-11-02T00:02:33.896Z,50.16
2022-11-02T00:03:06.429Z,49.97
2022-11-02T00:03:41.530Z,50.03
2022-11-02T00:04:13.846Z,49.89
2022-11-02T00:04:46.081Z,49.96
2022-11-02T00:05:24.787Z,49.86
2022-11-02T00:05:56.991Z,49.84
2022-11-02T00:06:29.183Z,50.16
2022-11-02T00:07:01.408Z,50.20
2022-11-02T00:07:36.213Z,50.04
2022-11-02T00:08:08.425Z,49.89
2022-11-02T00:08:40.898Z,50.26
2022-11-02T00:09:15.679Z,49.88
2022-11-02T00:09:47.872Z,49.97
2022-11-02T00:10:20.640Z,49.85
2022-11-02T00:10:55.447Z,50.20
2022-11-02T00:11:27.639Z,50.26
2022-11-02T00:11:59.899Z,50.11
2022-11-02T00:12:32.117Z,50.20
2022-11-02T00:13:07.303Z,50.16
2022-11-02T00:13:39.687Z,49.89
2022-11-02T00:14:11.891Z,50.16
2022-11-02T00:14:46.717Z,49.85
2022-11-02T00:15:21.843Z,50.24
2022-11-02T00:15:54.079Z,50.00
2022-11-02T00:16:29.085Z,50.01
2022-11-02T00:17:01.306Z,49.81
2022-11-02T00:17:33.987Z,49.89
2022-11-02T00:18:12.101Z,50.03
2022-11-02T00:18:45.705Z,50.04
2022-11-02T00:19:17.912Z,50.04
2022-11-02T00:19:52.798Z,49.94
2022-11-02T00:20:26.376Z,50.30
2022-11-02T00:21:01.682Z,50.28
2022-11-02T00:21:34.328Z,50.25
2022-11-02T00:22:06.565Z,50.05
2022-11-02T00:22:41.943Z,50.03
2022-11-02T00:23:15.168Z,50.16
2022-11-02T00:23:48.091Z,50.06
2022-11-02T00:24:22.913Z,50.04
2022-11-02T00:24:55.897Z,50.32
2022-11-02T00:25:29.023Z,50.31
2022-11-02T00:26:02.546Z,49.92
2022-11-02T00:26:39.088Z,49.99
2022-11-02T00:27:11.498Z,49.99
2022-11-02T00:27:43.971Z,50.31
2022-11-02T00:28:18.966Z,50.00
2022-11-02T00:28:51.211Z,49.98
2022-11-02T00:29:24.434Z,50.35
2022-11-02T00:29:59.375Z,50.32
2022-11-02T00:30:34.290Z,49.97
2022-11-02T00:31:06.541Z,50.36
2022-11-02T00:31:41.347Z,50.13
2022-11-02T00:32:13.589Z,50.17
2022-11-02T00:32:45.897Z,50.45
2022-11-02T00:33:20.718Z,50.00
2022-11-02T00:33:52.977Z,50.24
2022-11-02T00:34:25.195Z,49.96
2022-11-02T00:34:57.382Z,50.07
2022-11-02T00:35:32.179Z,50.37
2022-11-02T00:36:04.730Z,50.39
2022-11-02T00:36:36.958Z,50.08
2022-11-02T00:37:12.913Z,50.53
2022-11-02T00:37:45.116Z,50.49
2022-11-02T00:38:17.351Z,50.32
2022-11-02T00:38:49.686Z,50.04
2022-11-02T00:39:24.490Z,50.19
2022-11-02T00:39:56.683Z,50.16
2022-11-02T00:40:29.328Z,50.43
2022-11-02T00:41:01.519Z,50.01
2022-11-02T00:41:36.360Z,50.02
2022-11-02T00:42:09.514Z,50.27
2022-11-02T00:42:41.810Z,50.01
2022-11-02T00:43:17.183Z,50.16
2022-11-02T00:43:49.398Z,50.15
2022-11-02T00:44:21.611Z,50.07
2022-11-02T00:44:56.630Z,50.30
2022-11-02T00:45:28.824Z,50.08
2022-11-02T00:46:03.703Z,50.27
2022-11-02T00:46:39.372Z,50.29
2022-11-02T00:47:12.015Z,50.39
2022-11-02T00:47:44.259Z,50.31
2022-11-02T00:48:19.129Z,50.08
2022-11-02T00:48:52.364Z,49.96
2022-11-02T00:49:24.746Z,49.93
2022-11-02T00:50:00.276Z,50.43
2022-11-02T00:50:32.758Z,49.99
2022-11-02T00:51:05.503Z,50.33
2022-11-02T00:51:40.641Z,49.98
2022-11-02T00:52:12.997Z,50.11
2022-11-02T00:52:45.618Z,50.23
2022-11-02T00:53:21.137Z,50.30
2022-11-02T00:53:57.680Z,49.89
2022-11-02T00:54:31.040Z,50.39
2022-11-02T00:55:05.972Z,49.92
2022-11-02T00:55:38.294Z,50.20
2022-11-02T00:56:10.805Z,50.08
2022-11-02T00:56:45.641Z,50.18
2022-11-02T00:57:17.879Z,50.35
2022-11-02T00:57:50.643Z,50.11
2022-11-02T00:58:26.309Z,50.16
2022-11-02T00:58:58.678Z,49.94
2022-11-02T00:59:30.919Z,50.43
2022-11-02T01:00:05.867Z,50.07
2022-11-02T01:00:38.522Z,50.24
2022-11-02T01:01:13.444Z,50.05
2022-11-02T01:01:49.534Z,50.35
2022-11-02T01:02:22.322Z,50.32
2022-11-02T01:02:54.635Z,50.04
2022-11-02T01:03:29.426Z,49.99
2022-11-02T01:04:01.662Z,50.11
2022-11-02T01:04:34.414Z,49.99
2022-11-02T01:05:10.957Z,50.35
2022-11-02T01:05:43.199Z,49.95
2022-11-02T01:06:16.329Z,50.01
2022-11-02T01:06:51.127Z,49.99
2022-11-02T01:07:23.323Z,50.11
2022-11-02T01:07:55.566Z,50.26
2022-11-02T01:08:27.825Z,50.47
2022-11-02T01:09:02.678Z,50.11
2022-11-02T01:09:35.144Z,50.47
2022-11-02T01:10:08.834Z,50.07
2022-11-02T01:10:47.209Z,50.07
2022-11-02T01:11:23.292Z,50.03
2022-11-02T01:11:56.655Z,50.49
2022-11-02T01:12:31.447Z,50.28
2022-11-02T01:13:03.672Z,50.16
2022-11-02T01:13:36.931Z,50.52
2022-11-02T01:14:12.343Z,50.28
2022-11-02T01:14:47.464Z,50.18
2022-11-02T01:15:22.694Z,50.54
2022-11-02T01:15:54.871Z,50.13
2022-11-02T01:16:30.078Z,50.22
2022-11-02T01:17:05.059Z,50.51
2022-11-02T01:17:37.433Z,50.57
2022-11-02T01:18:10.320Z,50.11
2022-11-02T01:18:45.616Z,50.42
2022-11-02T01:19:18.222Z,50.25
2022-11-02T01:19:50.772Z,50.48
2022-11-02T01:20:25.939Z,50.28
2022-11-02T01:20:58.214Z,50.37
2022-11-02T01:21:30.469Z,50.44
2022-11-02T01:22:05.299Z,50.22
2022-11-02T01:22:39.110Z,50.28
2022-11-02T01:23:11.315Z,50.24
2022-11-02T01:23:46.093Z,50.08
2022-11-02T01:24:18.296Z,50.39
2022-11-02T01:24:50.506Z,50.13
2022-11-02T01:25:25.324Z,50.04
2022-11-02T01:25:57.550Z,50.43
2022-11-02T01:26:29.758Z,50.20
2022-11-02T01:27:04.840Z,50.47
2022-11-02T01:27:37.074Z,50.06
2022-11-02T01:28:09.275Z,50.01
2022-11-02T01:28:44.545Z,50.43
2022-11-02T01:29:18.428Z,50.49
2022-11-02T01:29:51.798Z,50.10
2022-11-02T01:30:26.599Z,50.00
2022-11-02T01:30:59.239Z,49.99
2022-11-02T01:31:34.149Z,50.05
2022-11-02T01:32:11.686Z,50.34
2022-11-02T01:32:43.881Z,50.45
2022-11-02T01:33:16.162Z,50.10
2022-11-02T01:33:50.975Z,50.50
2022-11-02T01:34:23.191Z,50.14
2022-11-02T01:34:55.418Z,50.44
2022-11-02T01:35:30.213Z,50.25
2022-11-02T01:36:03.931Z,50.03
2022-11-02T01:36:36.131Z,50.06
2022-11-02T01:37:10.939Z,50.42
2022-11-02T01:37:44.141Z,50.37
2022-11-02T01:38:16.541Z,50.35
2022-11-02T01:38:51.587Z,50.01
2022-11-02T01:39:23.795Z,50.16
2022-11-02T01:39:56.047Z,50.08
2022-11-02T01:40:31.006Z,50.23
2022-11-02T01:41:03.294Z,50.20
2022-11-02T01:41:37.169Z,50.19
2022-11-02T01:42:20.598Z,50.39
2022-11-02T01:42:52.788Z,50.30
2022-11-02T01:43:26.488Z,49.97
2022-11-02T01:44:05.349Z,50.38
2022-11-02T01:44:37.545Z,50.01
2022-11-02T01:45:11.706Z,50.40
2022-11-02T01:45:43.964Z,49.99
2022-11-02T01:46:22.259Z,49.94
2022-11-02T01:47:00.848Z,50.42
2022-11-02T01:47:36.469Z,50.27
2022-11-02T01:48:11.290Z,50.36
2022-11-02T01:48:46.503Z,50.18
2022-11-02T01:49:20.242Z,49.94
2022-11-02T01:50:05.554Z,50.27
2022-11-02T01:50:37.755Z,49.96
2022-11-02T01:51:11.443Z,50.11
2022-11-02T01:51:49.446Z,49.83
2022-11-02T01:52:24.178Z,49.98
2022-11-02T01:52:56.451Z,49.98
2022-11-02T01:53:31.747Z,50.15
2022-11-02T01:54:07.742Z,50.29
2022-11-02T01:54:43.154Z,50.16
2022-11-02T01:55:22.159Z,50.23
2022-11-02T01:55:54.976Z,50.28
2022-11-02T01:56:31.057Z,49.90
2022-11-02T01:57:09.177Z,49.95
2022-11-02T01:57:43.062Z,49.88
2022-11-02T01:58:17.870Z,50.30
2022-11-02T01:58:56.403Z,49.84
2022-11-02T01:59:31.491Z,49.81
2022-11-02T02:00:09.679Z,49.89
2022-11-02T02:00:48.186Z,49.84
2022-11-02T02:01:20.580Z,49.94
2022-11-02T02:01:55.735Z,49.96
2022-11-02T02:02:30.789Z,50.07
2022-11-02T02:03:07.001Z,50.06
2022-11-02T02:03:43.076Z,50.12
2022-11-02T02:04:16.087Z,50.31
2022-11-02T02:04:51.861Z,49.93
2022-11-02T02:05:27.513Z,50.31
2022-11-02T02:06:04.846Z,50.18
2022-11-02T02:06:37.742Z,49.94
2022-11-02T02:07:13.838Z,49.94
2022-11-02T02:07:46.395Z,50.08
2022-11-02T02:08:20.440Z,50.22
2022-11-02T02:08:56.212Z,50.38
2022-11-02T02:09:29.225Z,49.99
2022-11-02T02:10:01.640Z,50.21
2022-11-02T02:10:36.948Z,50.30
2022-11-02T02:11:26.745Z,50.07
2022-11-02T02:11:59.081Z,50.04
2022-11-02T02:12:34.540Z,50.45
2022-11-02T02:13:07.744Z,50.15
2022-11-02T02:13:40.212Z,50.07
2022-11-02T02:14:17.212Z,50.01
2022-11-02T02:14:54.010Z,50.03
2022-11-02T02:15:30.693Z,50.38
2022-11-02T02:16:10.663Z,50.06
2022-11-02T02:17:12.362Z,50.36
2022-11-02T02:17:55.639Z,50.28
2022-11-02T02:18:31.686Z,50.37
2022-11-02T02:19:23.266Z,50.45
2022-11-02T02:20:02.312Z,50.49
2022-11-02T02:20:46.776Z,50.08
2022-11-02T02:21:29.962Z,50.26
2022-11-02T02:22:27.130Z,50.06
2022-11-02T02:23:28.045Z,50.04
2022-11-02T02:24:14.647Z,50.39
2022-11-02T02:24:51.201Z,50.51
2022-11-02T02:25:39.282Z,50.30
2022-11-02T02:26:49.661Z,50.16
2022-11-02T02:27:28.557Z,50.20
2022-11-02T02:28:13.127Z,50.41
2022-11-02T02:28:51.683Z,50.01
2022-11-02T02:29:24.842Z,50.10
2022-11-02T02:30:07.785Z,50.25
2022-11-02T02:30:47.039Z,50.03
2022-11-02T02:31:23.605Z,51.19
2022-11-02T02:32:01.590Z,51.10
2022-11-02T02:32:44.343Z,50.97
2022-11-02T02:33:21.438Z,50.97
2022-11-02T02:33:57.599Z,50.42
2022-11-02T02:34:37.310Z,50.41
2022-11-02T02:35:15.979Z,49.99
2022-11-02T02:35:52.858Z,50.08
2022-11-02T02:36:31.108Z,49.94
2022-11-02T02:37:08.290Z,49.92
2022-11-02T02:37:43.316Z,49.64
2022-11-02T02:38:24.034Z,49.25
2022-11-02T02:39:03.538Z,49.06
2022-11-02T02:39:42.256Z,49.31
2022-11-02T02:40:20.851Z,48.96
2022-11-02T02:40:57.826Z,48.72
2022-11-02T02:41:37.707Z,49.00
2022-11-02T02:42:15.977Z,48.72
2022-11-02T02:42:53.265Z,48.78
2022-11-02T02:43:33.158Z,48.52
2022-11-02T02:44:10.437Z,48.56
2022-11-02T02:44:46.674Z,48.48
2022-11-02T02:45:22.973Z,48.27
2022-11-02T02:46:01.099Z,48.35
2022-11-02T02:46:40.450Z,48.56
2022-11-02T02:47:18.000Z,48.02
2022-11-02T02:47:55.480Z,48.47
2022-11-02T02:48:28.842Z,48.16
2022-11-02T02:49:01.772Z,48.21
2022-11-02T02:49:41.062Z,48.21
2022-11-02T02:50:16.548Z,48.29
2022-11-02T02:50:49.978Z,47.83
2022-11-02T02:51:30.506Z,48.02
2022-11-02T02:52:03.570Z,47.85
2022-11-02T02:52:36.353Z,48.24
2022-11-02T02:53:11.480Z,47.85
2022-11-02T02:53:47.779Z,48.16
2022-11-02T02:54:25.391Z,48.00
2022-11-02T02:55:02.085Z,47.70
2022-11-02T02:55:38.343Z,47.89
2022-11-02T02:56:11.601Z,47.78
2022-11-02T02:56:49.882Z,47.86
2022-11-02T02:57:22.982Z,47.97
2022-11-02T02:57:56.900Z,47.54
2022-11-02T02:58:36.066Z,47.64
2022-11-02T02:59:15.079Z,47.53
2022-11-02T02:59:48.912Z,47.54
2022-11-02T03:00:26.613Z,47.63
2022-11-02T03:01:00.687Z,47.86
2022-11-02T03:01:34.593Z,47.51
2022-11-02T03:02:10.847Z,47.53
2022-11-02T03:02:43.589Z,47.63
2022-11-02T03:03:18.230Z,47.83
2022-11-02T03:03:53.031Z,47.37
2022-11-02T03:04:25.911Z,47.55
2022-11-02T03:04:58.124Z,47.48
2022-11-02T03:05:32.318Z,47.35
2022-11-02T03:06:18.641Z,47.30
2022-11-02T03:06:56.989Z,47.66
2022-11-02T03:07:34.381Z,47.20
2022-11-02T03:08:12.567Z,47.63
2022-11-02T03:08:50.563Z,47.58
2022-11-02T03:09:30.955Z,47.18
2022-11-02T03:10:12.855Z,47.18
2022-11-02T03:10:51.654Z,47.32
2022-11-02T03:11:24.061Z,47.37
2022-11-02T03:12:08.932Z,47.48
2022-11-02T03:12:50.940Z,47.57
2022-11-02T03:13:36.707Z,47.10
2022-11-02T03:14:18.908Z,47.48
2022-11-02T03:15:11.346Z,47.32
2022-11-02T03:15:47.548Z,47.09
2022-11-02T03:16:37.254Z,47.15
2022-11-02T03:17:18.720Z,47.35
2022-11-02T03:18:00.373Z,47.14
2022-11-02T03:18:38.803Z,47.33
2022-11-02T03:19:21.139Z,47.19
2022-11-02T03:19:56.155Z,47.35
2022-11-02T03:20:35.138Z,47.49
2022-11-02T03:21:15.971Z,47.11
2022-11-02T03:21:52.510Z,47.33
2022-11-02T03:22:31.232Z,47.51
2022-11-02T03:23:15.778Z,47.47
2022-11-02T03:23:53.106Z,47.32
2022-11-02T03:24:27.788Z,47.52
2022-11-02T03:25:07.090Z,47.03
2022-11-02T03:25:45.828Z,47.51
2022-11-02T03:26:23.105Z,47.27
2022-11-02T03:27:06.083Z,47.11
2022-11-02T03:27:41.655Z,47.09
2022-11-02T03:28:18.737Z,47.26
2022-11-02T03:29:01.919Z,47.31
2022-11-02T03:29:39.312Z,47.46
2022-11-02T03:30:14.071Z,47.51
2022-11-02T03:30:52.677Z,47.40
2022-11-02T03:31:31.928Z,47.36
2022-11-02T03:32:08.493Z,47.49
2022-11-02T03:32:48.244Z,47.27
2022-11-02T03:33:25.086Z,47.21
2022-11-02T03:34:00.711Z,47.59
2022-11-02T03:34:39.552Z,47.60
2022-11-02T03:35:16.787Z,47.34
2022-11-02T03:35:52.596Z,47.49
2022-11-02T03:36:32.907Z,47.23
2022-11-02T03:38:10.045Z,47.39
2022-11-02T03:38:45.236Z,47.42
2022-11-02T03:39:21.619Z,47.47
2022-11-02T03:39:58.598Z,47.55
2022-11-02T03:40:33.887Z,48.40
2022-11-02T03:41:07.289Z,48.58
2022-11-02T03:41:44.672Z,48.00
2022-11-02T03:42:22.266Z,47.76
2022-11-02T03:42:57.383Z,47.35
2022-11-02T03:43:33.057Z,47.23
2022-11-02T03:44:11.916Z,47.00
2022-11-02T03:44:45.571Z,46.59
2022-11-02T03:45:24.126Z,46.89
2022-11-02T03:45:58.610Z,46.55
2022-11-02T03:46:34.627Z,46.24
2022-11-02T03:47:12.985Z,46.43
2022-11-02T03:47:48.017Z,45.51
2022-11-02T03:48:22.956Z,45.21
2022-11-02T03:48:56.734Z,45.71
2022-11-02T03:49:32.955Z,46.10
2022-11-02T03:50:06.155Z,45.71
2022-11-02T03:50:42.723Z,46.08
2022-11-02T03:51:20.686Z,45.83
2022-11-02T03:51:54.266Z,45.78
2022-11-02T03:52:30.418Z,45.53
2022-11-02T03:53:10.482Z,45.23
2022-11-02T03:53:49.011Z,44.42
2022-11-02T03:54:27.675Z,45.64
2022-11-02T03:55:07.968Z,45.51
2022-11-02T03:55:43.546Z,44.42
2022-11-02T03:56:20.551Z,44.49
2022-11-02T03:56:58.568Z,44.63
2022-11-02T03:57:38.535Z,44.67
2022-11-02T03:58:11.851Z,44.92
2022-11-02T03:58:48.082Z,44.94
2022-11-02T03:59:22.936Z,45.08
2022-11-02T04:00:06.838Z,45.52
2022-11-02T04:00:51.164Z,45.38
2022-11-02T04:01:23.573Z,45.84
2022-11-02T04:01:56.338Z,45.54
2022-11-02T04:02:31.912Z,46.00
2022-11-02T04:03:07.182Z,46.14
2022-11-02T04:03:45.536Z,46.21
2022-11-02T04:04:21.101Z,45.88
2022-11-02T04:04:53.419Z,46.02
2022-11-02T04:05:29.890Z,46.50
2022-11-02T04:06:06.883Z,46.28
2022-11-02T04:06:42.069Z,46.26
2022-11-02T04:07:15.579Z,46.17
2022-11-02T04:08:06.250Z,46.46
2022-11-02T04:08:43.559Z,46.43
2022-11-02T04:09:17.215Z,46.68
2022-11-02T04:09:49.483Z,46.87
2022-11-02T04:10:21.834Z,46.82
2022-11-02T04:11:09.448Z,46.47
2022-11-02T04:11:56.806Z,46.62
2022-11-02T04:12:44.438Z,46.71
2022-11-02T04:13:31.682Z,46.55
2022-11-02T04:14:19.030Z,46.75
2022-11-02T04:14:56.607Z,46.96
2022-11-02T04:15:28.804Z,46.99
2022-11-02T04:16:01.064Z,46.63
2022-11-02T04:16:33.453Z,46.69
2022-11-02T04:17:24.167Z,47.01
2022-11-02T04:18:13.427Z,46.60
2022-11-02T04:19:00.920Z,46.58
2022-11-02T04:19:36.742Z,46.67
2022-11-02T04:20:12.425Z,47.12
2022-11-02T04:20:44.758Z,46.92
2022-11-02T04:21:16.953Z,46.74
2022-11-02T04:22:05.319Z,47.08
2022-11-02T04:22:54.840Z,46.92
2022-11-02T04:23:42.050Z,47.07
2022-11-02T04:24:29.263Z,47.08
2022-11-02T04:25:16.587Z,46.99
2022-11-02T04:26:23.582Z,46.73
2022-11-02T04:26:55.950Z,47.11
2022-11-02T04:27:28.170Z,47.12
2022-11-02T04:28:10.504Z,46.98
2022-11-02T04:28:51.535Z,46.77
2022-11-02T04:29:23.791Z,46.99
2022-11-02T04:30:01.279Z,46.94
2022-11-02T04:30:36.330Z,47.02
2022-11-02T04:31:08.619Z,47.25
2022-11-02T04:31:46.602Z,46.76
2022-11-02T04:32:35.273Z,46.85
2022-11-02T04:33:23.662Z,46.90
2022-11-02T04:34:01.583Z,46.96
2022-11-02T04:34:33.800Z,47.27
2022-11-02T04:35:08.488Z,47.28
2022-11-02T04:35:43.663Z,46.98
2022-11-02T04:36:16.051Z,47.08
2022-11-02T04:36:50.514Z,47.25
2022-11-02T04:37:37.880Z,47.01
2022-11-02T04:38:25.641Z,47.10
2022-11-02T04:39:01.538Z,47.27
2022-11-02T04:39:35.393Z,47.35
2022-11-02T04:40:08.602Z,46.89
2022-11-02T04:40:40.992Z,47.35
2022-11-02T04:41:29.560Z,46.89
2022-11-02T04:42:04.836Z,46.97
2022-11-02T04:42:46.647Z,47.13
2022-11-02T04:43:21.452Z,46.81
2022-11-02T04:43:53.971Z,47.22
2022-11-02T04:44:28.801Z,47.10
2022-11-02T04:45:27.808Z,46.80
2022-11-02T04:46:00.888Z,47.30
2022-11-02T04:46:34.621Z,47.34
2022-11-02T04:47:11.160Z,46.92
2022-11-02T04:47:43.389Z,47.32
2022-11-02T04:48:15.674Z,47.04
2022-11-02T04:48:48.352Z,47.05
2022-11-02T04:49:23.157Z,47.08
2022-11-02T04:49:55.685Z,47.39
2022-11-02T04:50:28.925Z,47.07
2022-11-02T04:51:03.747Z,46.95
2022-11-02T04:51:36.662Z,47.07
2022-11-02T04:52:09.968Z,47.13
2022-11-02T04:52:48.085Z,47.01
2022-11-02T04:53:20.490Z,47.16
2022-11-02T04:53:53.370Z,47.12
2022-11-02T04:54:28.643Z,46.87
2022-11-02T04:55:05.303Z,46.87
2022-11-02T04:55:37.946Z,47.13
2022-11-02T04:56:13.134Z,47.11
2022-11-02T04:56:45.639Z,47.30
2022-11-02T04:57:18.857Z,46.87
2022-11-02T04:57:53.812Z,46.89
2022-11-02T04:58:26.930Z,47.20
2022-11-02T04:59:00.475Z,46.96
2022-11-02T04:59:37.884Z,47.06
2022-11-02T05:00:12.292Z,47.37
2022-11-02T05:00:47.097Z,47.20
2022-11-02T05:01:22.782Z,46.03
2022-11-02T05:01:55.340Z,45.62
2022-11-02T05:02:27.910Z,45.84
2022-11-02T05:03:06.820Z,46.26
2022-11-02T05:03:42.998Z,46.52
2022-11-02T05:04:15.471Z,46.82
2022-11-02T05:04:50.378Z,47.11
2022-11-02T05:05:23.148Z,46.83
2022-11-02T05:05:57.466Z,46.98
2022-11-02T05:06:32.532Z,47.11
2022-11-02T05:07:06.664Z,47.30
2022-11-02T05:07:41.177Z,47.57
2022-11-02T05:08:16.052Z,47.61
2022-11-02T05:08:48.298Z,47.94
2022-11-02T05:09:20.519Z,47.97
2022-11-02T05:09:56.555Z,48.07
2022-11-02T05:10:28.984Z,47.90
2022-11-02T05:11:04.763Z,48.27
2022-11-02T05:11:37.878Z,48.57
2022-11-02T05:12:10.260Z,48.57
2022-11-02T05:12:45.776Z,48.43
2022-11-02T05:13:19.004Z,48.46
2022-11-02T05:13:51.246Z,48.34
2022-11-02T05:14:27.318Z,48.48
2022-11-02T05:14:59.585Z,48.55
2022-11-02T05:15:31.911Z,48.51
2022-11-02T05:16:13.095Z,48.67
2022-11-02T05:16:45.299Z,48.96
2022-11-02T05:17:19.151Z,48.98
2022-11-02T05:17:54.179Z,48.67
2022-11-02T05:18:28.133Z,49.13
2022-11-02T05:19:01.318Z,48.77
2022-11-02T05:19:36.965Z,48.74
2022-11-02T05:20:11.311Z,49.29
2022-11-02T05:20:43.863Z,49.22
2022-11-02T05:21:18.675Z,49.22
2022-11-02T05:21:51.106Z,49.19
2022-11-02T05:22:23.422Z,49.02
2022-11-02T05:22:55.749Z,49.31
2022-11-02T05:23:32.912Z,49.25
2022-11-02T05:24:07.329Z,49.27
2022-11-02T05:24:40.599Z,49.42
2022-11-02T05:25:16.415Z,49.20
2022-11-02T05:25:55.994Z,49.22
2022-11-02T05:26:29.352Z,48.99
2022-11-02T05:27:04.246Z,49.03
2022-11-02T05:27:39.838Z,49.33
2022-11-02T05:28:12.112Z,49.05
2022-11-02T05:28:47.243Z,49.36
2022-11-02T05:29:19.439Z,49.01
2022-11-02T05:29:52.876Z,49.10
2022-11-02T05:30:27.776Z,49.17
2022-11-02T05:31:01.873Z,49.08
2022-11-02T05:31:39.434Z,49.51
2022-11-02T05:32:14.859Z,49.56
2022-11-02T05:32:47.827Z,49.58
2022-11-02T05:33:20.585Z,49.16
2022-11-02T05:33:56.069Z,49.39
2022-11-02T05:34:29.203Z,49.22
2022-11-02T05:35:01.490Z,49.60
2022-11-02T05:35:34.757Z,49.34
2022-11-02T05:36:10.072Z,49.33
2022-11-02T05:36:47.814Z,49.16
2022-11-02T05:37:20.685Z,49.60
2022-11-02T05:37:58.182Z,49.52
2022-11-02T05:38:30.502Z,49.15
2022-11-02T05:39:05.036Z,49.17
2022-11-02T05:39:40.065Z,49.40
2022-11-02T05:40:12.808Z,49.45
2022-11-02T05:40:45.487Z,49.52
2022-11-02T05:41:20.633Z,49.62
2022-11-02T05:41:53.893Z,49.60
2022-11-02T05:42:26.480Z,49.39
2022-11-02T05:43:03.159Z,49.35
2022-11-02T05:43:35.838Z,49.28
2022-11-02T05:44:10.747Z,49.41
2022-11-02T05:44:47.360Z,49.41
2022-11-02T05:45:23.597Z,49.59
2022-11-02T05:45:58.021Z,49.53
2022-11-02T05:46:33.664Z,49.51
2022-11-02T05:47:08.547Z,49.33
2022-11-02T05:47:40.745Z,49.73
2022-11-02T05:48:15.539Z,49.75
2022-11-02T05:48:47.746Z,49.54
2022-11-02T05:49:19.946Z,49.71
2022-11-02T05:49:54.772Z,49.56
2022-11-02T05:50:27.058Z,49.53
2022-11-02T05:51:00.868Z,49.58
2022-11-02T05:51:33.163Z,49.63
2022-11-02T05:52:08.234Z,49.52
2022-11-02T05:52:40.501Z,49.77
2022-11-02T05:53:12.759Z,49.44
2022-11-02T05:53:47.566Z,49.44
2022-11-02T05:54:19.787Z,49.38
2022-11-02T05:54:51.980Z,49.90
2022-11-02T05:55:27.198Z,49.80
2022-11-02T05:56:00.235Z,49.41
2022-11-02T05:56:32.467Z,49.68
2022-11-02T05:57:07.258Z,49.65
2022-11-02T05:57:39.600Z,49.57
2022-11-02T05:58:11.879Z,49.72
2022-11-02T05:58:46.781Z,49.85
2022-11-02T05:59:19.030Z,49.84
2022-11-02T05:59:51.230Z,49.84
2022-11-02T06:00:24.403Z,49.69
2022-11-02T06:01:02.128Z,49.73
2022-11-02T06:01:34.498Z,49.52
2022-11-02T06:02:10.089Z,49.89
2022-11-02T06:02:44.906Z,49.94
2022-11-02T06:03:17.887Z,49.76
2022-11-02T06:03:53.458Z,49.51
2022-11-02T06:04:31.110Z,49.50
2022-11-02T06:05:03.660Z,49.83
2022-11-02T06:05:37.037Z,50.01
2022-11-02T06:06:15.241Z,49.75
2022-11-02T06:06:47.471Z,49.92
2022-11-02T06:07:20.698Z,49.46
2022-11-02T06:07:55.621Z,49.65
2022-11-02T06:08:31.557Z,49.58
2022-11-02T06:09:07.488Z,49.73
2022-11-02T06:09:42.668Z,49.67
2022-11-02T06:10:15.736Z,49.51
2022-11-02T06:10:51.818Z,49.53
2022-11-02T06:11:24.440Z,49.77
2022-11-02T06:11:56.704Z,49.61
2022-11-02T06:12:31.511Z,49.68
2022-11-02T06:13:04.657Z,49.87
2022-11-02T06:13:37.597Z,49.64
2022-11-02T06:14:12.593Z,49.82
2022-11-02T06:14:47.659Z,49.84
2022-11-02T06:15:21.842Z,49.92
2022-11-02T06:15:57.691Z,49.95
2022-11-02T06:16:30.060Z,49.64
2022-11-02T06:17:02.544Z,49.69
2022-11-02T06:17:46.503Z,50.00
2022-11-02T06:18:18.707Z,49.75
2022-11-02T06:18:51.012Z,49.75
2022-11-02T06:19:25.794Z,49.58
2022-11-02T06:19:57.982Z,49.56
2022-11-02T06:20:30.215Z,49.60
2022-11-02T06:21:05.126Z,49.72
2022-11-02T06:21:37.347Z,49.48
2022-11-02T06:22:09.550Z,49.42
2022-11-02T06:22:45.054Z,49.65
2022-11-02T06:23:18.423Z,49.58
2022-11-02T06:23:53.644Z,49.72
2022-11-02T06:24:25.884Z,49.45
2022-11-02T06:24:58.070Z,49.41
2022-11-02T06:25:32.963Z,49.82
2022-11-02T06:26:05.416Z,49.49
2022-11-02T06:26:40.255Z,49.71
2022-11-02T06:27:12.474Z,49.43
2022-11-02T06:27:51.117Z,49.75
2022-11-02T06:28:26.449Z,49.73
2022-11-02T06:28:59.696Z,49.77
2022-11-02T06:29:34.591Z,49.73
2022-11-02T06:30:08.312Z,49.67
2022-11-02T06:30:40.503Z,49.71
2022-11-02T06:31:17.353Z,49.58
2022-11-02T06:31:49.578Z,49.81
2022-11-02T06:32:21.750Z,49.60
2022-11-02T06:33:02.932Z,49.86
2022-11-02T06:33:38.312Z,49.80
2022-11-02T06:34:13.129Z,49.53
2022-11-02T06:34:45.323Z,49.89
2022-11-02T06:35:18.595Z,49.84
2022-11-02T06:35:54.827Z,49.60
2022-11-02T06:36:27.051Z,49.76
2022-11-02T06:36:59.254Z,49.51
2022-11-02T06:37:37.248Z,49.84
2022-11-02T06:38:09.439Z,49.43
2022-11-02T06:38:46.190Z,49.84
2022-11-02T06:39:18.434Z,49.52
2022-11-02T06:39:50.626Z,49.96
2022-11-02T06:40:26.618Z,49.66
2022-11-02T06:41:02.252Z,49.83
2022-11-02T06:41:34.488Z,49.82
2022-11-02T06:42:09.288Z,49.90
2022-11-02T06:42:45.284Z,49.96
2022-11-02T06:43:31.296Z,49.62
2022-11-02T06:44:03.626Z,49.87
2022-11-02T06:44:35.818Z,49.81
2022-11-02T06:45:11.870Z,49.68
2022-11-02T06:45:44.095Z,49.88
2022-11-02T06:46:16.318Z,49.86
2022-11-02T06:46:51.106Z,49.67
2022-11-02T06:47:23.295Z,49.63
2022-11-02T06:47:58.092Z,49.70
2022-11-02T06:48:35.519Z,49.87
2022-11-02T06:49:08.099Z,49.56
2022-11-02T06:49:40.312Z,49.78
2022-11-02T06:50:15.099Z,49.99
2022-11-02T06:50:47.446Z,49.99
2022-11-02T06:51:22.259Z,50.02
2022-11-02T06:51:54.504Z,49.75
2022-11-02T06:52:26.941Z,49.94
2022-11-02T06:53:02.089Z,49.91
2022-11-02T06:53:34.422Z,50.08
2022-11-02T06:54:08.892Z,50.06
2022-11-02T06:54:43.804Z,50.08
2022-11-02T06:55:16.619Z,50.03
2022-11-02T06:55:52.606Z,49.78
2022-11-02T06:56:27.461Z,49.94
2022-11-02T06:56:59.660Z,49.83
2022-11-02T06:57:36.248Z,49.93
2022-11-02T06:58:11.167Z,49.87
2022-11-02T06:58:43.403Z,49.98
2022-11-02T06:59:15.599Z,49.67
2022-11-02T06:59:53.954Z,49.88
2022-11-02T07:00:26.486Z,49.79
2022-11-02T07:01:02.712Z,49.89
2022-11-02T07:01:35.424Z,49.83
2022-11-02T07:02:11.539Z,50.15
2022-11-02T07:02:44.239Z,49.81
2022-11-02T07:03:19.163Z,49.81
2022-11-02T07:03:54.060Z,50.06
2022-11-02T07:04:26.276Z,49.86
2022-11-02T07:04:58.488Z,49.92
2022-11-02T07:05:34.756Z,49.86
2022-11-02T07:06:12.917Z,49.75
2022-11-02T07:06:49.100Z,50.08
2022-11-02T07:07:21.326Z,50.11
2022-11-02T07:07:53.709Z,49.82
2022-11-02T07:08:29.597Z,49.90
2022-11-02T07:09:01.889Z,49.73
2022-11-02T07:09:34.179Z,49.82
2022-11-02T07:10:10.744Z,49.98
2022-11-02T07:10:42.958Z,50.09
2022-11-02T07:11:15.720Z,49.89
2022-11-02T07:11:50.542Z,49.85
2022-11-02T07:12:23.319Z,49.91
2022-11-02T07:12:57.535Z,49.92
2022-11-02T07:13:32.487Z,50.15
2022-11-02T07:14:04.679Z,50.20
2022-11-02T07:14:36.938Z,49.84
2022-11-02T07:15:13.870Z,50.06
2022-11-02T07:15:46.172Z,49.94
2022-11-02T07:16:20.991Z,49.94
2022-11-02T07:16:53.230Z,50.12
2022-11-02T07:17:31.970Z,49.89
2022-11-02T07:18:06.248Z,49.69
2022-11-02T07:18:43.843Z,49.72
2022-11-02T07:19:16.124Z,50.11
2022-11-02T07:19:48.326Z,50.21
2022-11-02T07:20:23.402Z,49.80
2022-11-02T07:20:55.610Z,50.25
2022-11-02T07:21:30.824Z,50.18
2022-11-02T07:22:03.151Z,49.85
2022-11-02T07:22:35.435Z,49.84
2022-11-02T07:23:10.469Z,50.16
2022-11-02T07:23:42.806Z,50.25
2022-11-02T07:24:15.016Z,50.10
2022-11-02T07:24:49.843Z,50.03
2022-11-02T07:25:22.660Z,50.01
2022-11-02T07:25:55.090Z,50.38
2022-11-02T07:26:29.990Z,50.04
2022-11-02T07:27:02.196Z,50.34
2022-11-02T07:27:38.912Z,50.23
2022-11-02T07:28:13.726Z,50.08
2022-11-02T07:28:46.179Z,50.21
2022-11-02T07:29:18.902Z,50.36
2022-11-02T07:29:53.728Z,50.51
2022-11-02T07:30:26.189Z,50.40
2022-11-02T07:30:58.442Z,50.13
2022-11-02T07:31:33.501Z,50.53
2022-11-02T07:32:07.731Z,50.44
2022-11-02T07:32:40.730Z,50.18
2022-11-02T07:33:15.542Z,50.53
2022-11-02T07:33:50.369Z,50.27
2022-11-02T07:34:22.562Z,50.39
2022-11-02T07:34:57.409Z,50.13
2022-11-02T07:35:29.709Z,50.32
2022-11-02T07:36:06.622Z,50.57
2022-11-02T07:36:38.813Z,50.47
2022-11-02T07:37:13.648Z,50.52
2022-11-02T07:37:54.523Z,50.56
2022-11-02T07:38:26.710Z,50.58